Time;durP1;ratioP1;P1;durP2;ratioP2;P2;SDS_P1;SDS_P2;PMS_P1;PMS_P2;Temp;Humidity;BMP_temperature;BMP_pressure;BME280_temperature;BME280_humidity;BME280_pressure;Samples;Min_cycle;Max_cycle;Signal;HPM_P1;HPM_P2
2023/12/17 00:01:21;;;;;;;;;;;1.60;99.90;;;;;;5036755;28;19915;-88
2023/12/17 00:03:47;;;;;;;;;;;1.50;99.90;;;;;;5051412;28;19962;-89
2023/12/17 00:06:12;;;;;;;;;;;1.60;99.90;;;;;;5033009;28;20454;-89
2023/12/17 00:08:38;;;;;;;;;;;1.60;99.90;;;;;;5050322;28;19915;-88
2023/12/17 00:11:03;;;;;;;;;;;1.50;99.90;;;;;;5066367;28;19916;-89
2023/12/17 00:13:29;;;;;;;;;;;1.50;99.90;;;;;;5033235;28;19908;-88
2023/12/17 00:15:54;;;;;;;;;;;1.40;99.90;;;;;;5039193;28;19934;-88
2023/12/17 00:18:20;;;;;;;;;;;1.40;99.90;;;;;;5037916;28;20642;-88
2023/12/17 00:20:46;;;;;;;;;;;1.40;99.90;;;;;;5051075;28;19919;-88
2023/12/17 00:23:11;;;;;;;;;;;1.50;99.90;;;;;;5051581;28;19908;-86
2023/12/17 00:25:37;;;;;;;;;;;1.40;99.90;;;;;;5050752;28;19920;-86
2023/12/17 00:28:02;;;;;;;;;;;1.40;99.90;;;;;;5050658;28;19909;-86
2023/12/17 00:30:28;;;;;;;;;;;1.50;99.90;;;;;;5032279;28;19999;-86
2023/12/17 00:32:53;;;;;;;;;;;1.40;99.90;;;;;;5032889;28;19923;-87
2023/12/17 00:35:20;;;;;;;;;;;1.40;99.90;;;;;;5050780;28;21061;-86
2023/12/17 00:37:45;;;;;;;;;;;1.30;99.90;;;;;;5051845;28;20520;-85
2023/12/17 00:40:11;;;;;;;;;;;1.20;99.90;;;;;;5050909;28;19992;-85
2023/12/17 00:42:36;;;;;;;;;;;1.20;99.90;;;;;;5051130;28;19913;-85
2023/12/17 00:45:02;;;;;;;;;;;1.30;99.90;;;;;;5050305;28;19909;-86
2023/12/17 00:47:27;;;;;;;;;;;1.20;99.90;;;;;;5037397;28;19908;-85
2023/12/17 00:49:53;;;;;;;;;;;1.20;99.90;;;;;;5033354;28;19905;-86
2023/12/17 00:52:20;;;;;;;;;;;1.10;99.90;;;;;;5050933;28;19913;-88
2023/12/17 00:54:46;;;;;;;;;;;1.00;99.90;;;;;;5050406;28;19908;-87
2023/12/17 00:57:11;;;;;;;;;;;1.00;99.90;;;;;;5032733;28;20783;-87
2023/12/17 00:59:37;;;;;;;;;;;1.00;99.90;;;;;;5049508;28;19909;-87
2023/12/17 01:02:02;;;;;;;;;;;1.10;99.90;;;;;;5049507;28;19943;-87
2023/12/17 01:04:28;;;;;;;;;;;1.00;99.90;;;;;;5034518;28;19978;-86
2023/12/17 01:06:54;;;;;;;;;;;1.10;99.90;;;;;;5030886;28;19928;-85
2023/12/17 01:09:19;;;;;;;;;;;1.00;99.90;;;;;;5049152;28;19917;-86
2023/12/17 01:11:45;;;;;;;;;;;1.00;99.90;;;;;;5049332;28;19916;-86
2023/12/17 01:14:10;;;;;;;;;;;0.90;99.90;;;;;;5033836;28;20506;-86
2023/12/17 01:16:36;;;;;;;;;;;0.90;99.90;;;;;;5049315;28;19919;-87
2023/12/17 01:19:01;;;;;;;;;;;0.80;99.90;;;;;;5041175;28;20300;-88
2023/12/17 01:21:27;;;;;;;;;;;0.90;99.90;;;;;;5032997;28;19958;-89
2023/12/17 01:23:53;;;;;;;;;;;0.90;99.90;;;;;;5034718;28;20304;-90
2023/12/17 01:26:20;;;;;;;;;;;0.80;99.90;;;;;;5032351;28;19917;-87
2023/12/17 01:28:46;;;;;;;;;;;0.90;99.90;;;;;;5031165;28;19909;-86
2023/12/17 01:31:12;;;;;;;;;;;0.90;99.90;;;;;;5031641;28;19920;-87
2023/12/17 01:33:37;;;;;;;;;;;1.00;99.90;;;;;;5035046;28;19968;-88
2023/12/17 01:36:03;;;;;;;;;;;0.90;99.90;;;;;;5032483;28;19928;-88
2023/12/17 01:38:29;;;;;;;;;;;0.90;99.90;;;;;;5028160;28;19920;-88
2023/12/17 01:40:54;;;;;;;;;;;0.90;99.90;;;;;;5035693;28;19912;-88
2023/12/17 01:43:20;;;;;;;;;;;0.90;99.90;;;;;;5035717;28;19916;-88
2023/12/17 01:45:45;;;;;;;;;;;0.90;99.90;;;;;;5032168;28;19920;-87
2023/12/17 01:48:11;;;;;;;;;;;0.90;99.90;;;;;;5049252;28;20474;-87
2023/12/17 01:50:37;;;;;;;;;;;0.90;99.90;;;;;;5038516;28;19924;-87
2023/12/17 01:53:03;;;;;;;;;;;0.90;99.90;;;;;;5049090;28;20372;-88
2023/12/17 01:55:29;;;;;;;;;;;0.80;99.90;;;;;;5033353;28;20693;-89
2023/12/17 01:57:55;;;;;;;;;;;0.80;99.90;;;;;;5038661;28;20311;-88
2023/12/17 02:00:21;;;;;;;;;;;0.80;99.90;;;;;;5032832;28;19916;-88
2023/12/17 02:02:47;;;;;;;;;;;0.80;99.90;;;;;;5035846;28;19913;-85
2023/12/17 02:05:12;;;;;;;;;;;0.70;99.90;;;;;;5032069;28;20023;-85
2023/12/17 02:07:39;;;;;;;;;;;0.70;99.90;;;;;;5034597;28;19909;-85
2023/12/17 02:10:05;;;;;;;;;;;0.70;99.90;;;;;;5049031;28;20000;-85
2023/12/17 02:12:31;;;;;;;;;;;0.60;99.90;;;;;;5031702;28;19920;-86
2023/12/17 02:14:56;;;;;;;;;;;0.70;99.90;;;;;;5031271;28;19908;-85
2023/12/17 02:17:28;;;;;;;;;;;0.70;99.90;;;;;;5048150;28;20014;-86
2023/12/17 02:19:54;;;;;;;;;;;0.70;99.90;;;;;;5048733;28;20656;-88
2023/12/17 02:22:23;;;;;;;;;;;0.90;99.90;;;;;;5035514;28;19923;-89
2023/12/17 02:24:52;;;;;;;;;;;0.80;99.90;;;;;;5049562;28;19912;-87
2023/12/17 02:27:22;;;;;;;;;;;0.70;99.90;;;;;;5030704;28;19910;-88
2023/12/17 02:29:47;;;;;;;;;;;0.60;99.90;;;;;;5047909;28;20429;-87
2023/12/17 02:32:14;;;;;;;;;;;0.70;99.90;;;;;;5035414;28;20342;-87
2023/12/17 02:34:40;;;;;;;;;;;0.80;99.90;;;;;;5021911;28;19912;-87
2023/12/17 02:37:05;;;;;;;;;;;0.80;99.90;;;;;;5030368;28;19919;-88
2023/12/17 02:39:31;;;;;;;;;;;0.80;99.90;;;;;;5049096;28;20691;-92
2023/12/17 02:41:58;;;;;;;;;;;0.80;99.90;;;;;;5043003;28;19913;-91
2023/12/17 02:44:23;;;;;;;;;;;0.70;99.90;;;;;;5046373;28;20278;-89
2023/12/17 02:46:49;;;;;;;;;;;0.70;99.90;;;;;;5050065;28;19923;-90
2023/12/17 02:49:14;;;;;;;;;;;0.70;99.90;;;;;;5037089;28;19923;-90
2023/12/17 02:51:40;;;;;;;;;;;0.60;99.90;;;;;;5049757;28;19923;-89
2023/12/17 02:54:05;;;;;;;;;;;0.70;99.90;;;;;;5036426;28;20433;-90
2023/12/17 02:56:37;;;;;;;;;;;0.70;99.90;;;;;;5033484;28;19986;-91
2023/12/17 02:59:04;;;;;;;;;;;0.60;99.90;;;;;;5052219;28;19909;-91
2023/12/17 03:01:29;;;;;;;;;;;0.70;99.90;;;;;;5049254;28;19944;-89
2023/12/17 03:03:55;;;;;;;;;;;0.60;99.90;;;;;;5032189;28;19956;-89
2023/12/17 03:06:20;;;;;;;;;;;0.70;99.90;;;;;;5041380;28;19956;-88
2023/12/17 03:08:46;;;;;;;;;;;0.50;99.90;;;;;;5047841;28;19995;-87
2023/12/17 03:11:11;;;;;;;;;;;0.50;99.90;;;;;;5047797;28;19948;-87
2023/12/17 03:13:38;;;;;;;;;;;0.50;99.90;;;;;;5032719;28;20017;-88
2023/12/17 03:16:03;;;;;;;;;;;0.50;99.90;;;;;;5030153;28;19966;-88
2023/12/17 03:18:29;;;;;;;;;;;0.50;99.90;;;;;;5031625;28;19912;-88
2023/12/17 03:20:54;;;;;;;;;;;0.50;99.90;;;;;;5029699;28;19958;-88
2023/12/17 03:23:20;;;;;;;;;;;0.40;99.90;;;;;;5048687;28;19966;-88
2023/12/17 03:25:45;;;;;;;;;;;0.30;99.90;;;;;;5030343;28;19925;-88
2023/12/17 03:28:11;;;;;;;;;;;0.20;99.90;;;;;;5047518;28;20670;-87
2023/12/17 03:30:36;;;;;;;;;;;0.40;99.90;;;;;;5031351;28;20644;-86
2023/12/17 03:33:02;;;;;;;;;;;0.30;99.90;;;;;;5047025;28;20370;-87
2023/12/17 03:35:27;;;;;;;;;;;0.10;99.90;;;;;;5036150;28;19999;-86
2023/12/17 03:37:53;;;;;;;;;;;0.20;99.90;;;;;;5029131;28;19912;-86
2023/12/17 03:40:18;;;;;;;;;;;0.20;99.90;;;;;;5047402;28;19970;-88
2023/12/17 03:42:44;;;;;;;;;;;0.10;99.90;;;;;;5047076;28;19931;-87
2023/12/17 03:45:10;;;;;;;;;;;0.10;99.90;;;;;;5036593;28;19916;-87
2023/12/17 03:47:36;;;;;;;;;;;0.10;99.90;;;;;;5030378;28;19932;-91
2023/12/17 03:50:01;;;;;;;;;;;0.10;99.90;;;;;;5030690;28;19913;-89
2023/12/17 03:52:27;;;;;;;;;;;0.10;99.90;;;;;;5048508;28;20003;-88
2023/12/17 03:54:52;;;;;;;;;;;0.20;99.90;;;;;;5035664;28;19913;-89
2023/12/17 03:57:18;;;;;;;;;;;0.30;99.90;;;;;;5033134;28;19928;-89
2023/12/17 03:59:43;;;;;;;;;;;0.20;99.90;;;;;;5039375;28;19928;-87
2023/12/17 04:02:09;;;;;;;;;;;0.30;99.90;;;;;;5029932;28;19912;-90
2023/12/17 04:04:34;;;;;;;;;;;0.30;99.90;;;;;;5030707;28;20090;-90
2023/12/17 04:07:00;;;;;;;;;;;0.20;99.90;;;;;;5032302;28;19956;-88
2023/12/17 04:09:26;;;;;;;;;;;0.30;99.90;;;;;;5046629;28;19912;-86
2023/12/17 04:11:51;;;;;;;;;;;0.40;99.90;;;;;;5028913;28;19913;-86
2023/12/17 04:14:17;;;;;;;;;;;0.30;99.90;;;;;;5030176;28;20380;-90
2023/12/17 04:16:42;;;;;;;;;;;0.40;99.90;;;;;;5035965;28;19911;-90
2023/12/17 04:19:08;;;;;;;;;;;0.30;99.90;;;;;;5032655;28;20003;-89
2023/12/17 04:21:33;;;;;;;;;;;0.20;99.90;;;;;;5031149;28;19909;-90
2023/12/17 04:23:59;;;;;;;;;;;0.30;99.90;;;;;;5033880;28;19951;-89
2023/12/17 04:26:24;;;;;;;;;;;0.30;99.90;;;;;;5029421;28;19956;-87
2023/12/17 04:28:50;;;;;;;;;;;0.30;99.90;;;;;;5033040;28;19959;-89
2023/12/17 04:31:15;;;;;;;;;;;0.30;99.90;;;;;;5029360;28;19927;-89
2023/12/17 04:33:41;;;;;;;;;;;0.10;99.90;;;;;;5048098;28;20039;-89
2023/12/17 04:36:06;;;;;;;;;;;0.10;99.90;;;;;;5047591;28;19915;-89
2023/12/17 04:38:32;;;;;;;;;;;0.10;99.90;;;;;;5067152;28;20454;-89
2023/12/17 04:40:57;;;;;;;;;;;0.10;99.90;;;;;;5049216;28;19904;-89
2023/12/17 04:43:23;;;;;;;;;;;0.10;99.90;;;;;;5048576;28;19913;-88
2023/12/17 04:45:49;;;;;;;;;;;0.10;99.90;;;;;;5037808;28;19916;-89
2023/12/17 04:48:14;;;;;;;;;;;0.10;99.90;;;;;;5048353;28;19909;-90
2023/12/17 04:50:40;;;;;;;;;;;0.10;99.90;;;;;;5034180;28;19963;-89
2023/12/17 04:53:05;;;;;;;;;;;0.20;99.90;;;;;;5027590;28;20376;-89
2023/12/17 04:55:32;;;;;;;;;;;0.20;99.90;;;;;;5036381;28;19909;-89
2023/12/17 04:57:57;;;;;;;;;;;0.20;99.90;;;;;;5033489;28;19920;-90
2023/12/17 05:00:23;;;;;;;;;;;0.00;99.90;;;;;;5050507;28;20398;-88
2023/12/17 05:02:48;;;;;;;;;;;0.10;99.90;;;;;;5050306;28;19913;-89
2023/12/17 05:05:14;;;;;;;;;;;0.10;99.90;;;;;;5033881;28;20019;-87
2023/12/17 05:07:39;;;;;;;;;;;0.20;99.90;;;;;;5049271;28;19919;-87
2023/12/17 05:10:05;;;;;;;;;;;0.00;99.90;;;;;;5064564;28;19913;-87
2023/12/17 05:12:31;;;;;;;;;;;0.00;99.90;;;;;;5049262;28;20386;-91
2023/12/17 05:14:56;;;;;;;;;;;0.20;99.90;;;;;;5066356;28;19913;-91
2023/12/17 05:17:22;;;;;;;;;;;0.20;99.90;;;;;;5033634;28;19908;-89
2023/12/17 05:19:47;;;;;;;;;;;0.10;99.90;;;;;;5037849;28;19958;-89
2023/12/17 05:22:13;;;;;;;;;;;0.20;99.90;;;;;;5050789;28;19913;-90
2023/12/17 05:24:38;;;;;;;;;;;0.10;99.90;;;;;;5037561;28;19908;-88
2023/12/17 05:27:04;;;;;;;;;;;0.00;99.90;;;;;;5045845;28;19917;-90
2023/12/17 05:29:30;;;;;;;;;;;-0.10;99.90;;;;;;5034837;28;19948;-89
2023/12/17 05:31:55;;;;;;;;;;;-0.10;99.90;;;;;;5048283;28;19920;-89
2023/12/17 05:34:21;;;;;;;;;;;-0.10;99.90;;;;;;5049471;28;19917;-89
2023/12/17 05:36:46;;;;;;;;;;;-0.10;99.90;;;;;;5032566;28;20003;-90
2023/12/17 05:39:12;;;;;;;;;;;-0.10;99.90;;;;;;5033263;28;19920;-89
2023/12/17 05:41:37;;;;;;;;;;;-0.10;99.90;;;;;;5032429;28;19904;-88
2023/12/17 05:44:03;;;;;;;;;;;-0.10;99.90;;;;;;5031672;28;19908;-89
2023/12/17 05:46:28;;;;;;;;;;;-0.10;99.90;;;;;;5031824;28;19923;-88
2023/12/17 05:48:54;;;;;;;;;;;-0.20;99.90;;;;;;5033978;28;19913;-90
2023/12/17 05:51:20;;;;;;;;;;;-0.20;99.90;;;;;;5038743;28;19912;-88
2023/12/17 05:53:46;;;;;;;;;;;-0.20;99.90;;;;;;5034229;28;19948;-90
2023/12/17 05:56:11;;;;;;;;;;;-0.10;99.90;;;;;;5031681;28;19955;-88
2023/12/17 05:58:37;;;;;;;;;;;-0.20;99.90;;;;;;5043605;28;19924;-90
2023/12/17 06:01:03;;;;;;;;;;;-0.10;99.90;;;;;;5037439;28;19909;-89
2023/12/17 06:03:30;;;;;;;;;;;-0.10;99.90;;;;;;5034972;28;19915;-90
2023/12/17 06:05:55;;;;;;;;;;;-0.10;99.90;;;;;;5041842;28;19919;-90
2023/12/17 06:08:21;;;;;;;;;;;-0.10;99.90;;;;;;5034643;28;19908;-90
2023/12/17 06:10:47;;;;;;;;;;;0.00;99.90;;;;;;5032830;28;19908;-89
2023/12/17 06:13:12;;;;;;;;;;;-0.20;99.90;;;;;;5032425;28;20328;-89
2023/12/17 06:15:38;;;;;;;;;;;-0.20;99.90;;;;;;5071965;28;19908;-89
2023/12/17 06:18:03;;;;;;;;;;;-0.30;99.90;;;;;;5043860;28;19915;-89
2023/12/17 06:20:30;;;;;;;;;;;-0.30;99.90;;;;;;5033095;28;20465;-90
2023/12/17 06:22:55;;;;;;;;;;;-0.40;99.90;;;;;;5032598;28;19996;-89
2023/12/17 06:25:21;;;;;;;;;;;-0.40;99.90;;;;;;5031184;28;20463;-87
2023/12/17 06:27:48;;;;;;;;;;;-0.40;99.90;;;;;;5031540;28;19908;-89
2023/12/17 06:30:13;;;;;;;;;;;-0.40;99.90;;;;;;5031105;28;19913;-88
2023/12/17 06:32:41;;;;;;;;;;;-0.40;99.90;;;;;;5048198;28;19919;-88
2023/12/17 06:35:06;;;;;;;;;;;-0.30;99.90;;;;;;5030673;28;19973;-88
2023/12/17 06:37:32;;;;;;;;;;;-0.30;99.90;;;;;;5036398;28;20532;-88
2023/12/17 06:39:57;;;;;;;;;;;-0.30;99.90;;;;;;5036016;28;19912;-88
2023/12/17 06:42:23;;;;;;;;;;;-0.20;99.90;;;;;;5037768;28;19939;-88
2023/12/17 06:44:48;;;;;;;;;;;-0.20;99.90;;;;;;5048303;28;20455;-88
2023/12/17 06:47:15;;;;;;;;;;;-0.30;99.90;;;;;;5030767;28;19916;-89
2023/12/17 06:49:41;;;;;;;;;;;-0.40;99.90;;;;;;5037941;28;20012;-89
2023/12/17 06:52:06;;;;;;;;;;;-0.40;99.90;;;;;;5048419;28;20015;-88
2023/12/17 06:54:32;;;;;;;;;;;-0.40;99.90;;;;;;5031270;28;19980;-89
2023/12/17 06:56:58;;;;;;;;;;;-0.30;99.90;;;;;;5023623;28;19913;-89
2023/12/17 06:59:23;;;;;;;;;;;-0.40;99.90;;;;;;5029766;28;19913;-88
2023/12/17 07:01:49;;;;;;;;;;;-0.20;99.90;;;;;;5047844;28;20364;-84
2023/12/17 07:04:14;;;;;;;;;;;-0.30;99.90;;;;;;5045854;28;20101;-85
2023/12/17 07:06:40;;;;;;;;;;;-0.30;99.90;;;;;;5028413;28;19927;-84
2023/12/17 07:09:07;;;;;;;;;;;-0.40;99.90;;;;;;5033710;28;19916;-87
2023/12/17 07:11:33;;;;;;;;;;;-0.40;99.90;;;;;;5030220;28;19991;-87
2023/12/17 07:13:59;;;;;;;;;;;-0.40;99.90;;;;;;5029002;28;19916;-87
2023/12/17 07:16:25;;;;;;;;;;;-0.30;99.90;;;;;;5029420;28;20007;-84
2023/12/17 07:18:51;;;;;;;;;;;-0.20;99.90;;;;;;5029513;28;19920;-86
2023/12/17 07:21:17;;;;;;;;;;;-0.20;99.90;;;;;;5028673;28;19909;-84
2023/12/17 07:23:42;;;;;;;;;;;-0.20;99.90;;;;;;5047611;28;20437;-88
2023/12/17 07:26:08;;;;;;;;;;;-0.10;99.90;;;;;;5049563;28;19983;-91
2023/12/17 07:28:33;;;;;;;;;;;-0.20;99.90;;;;;;5031993;28;20706;-86
2023/12/17 07:30:59;;;;;;;;;;;-0.20;99.90;;;;;;5035732;28;19916;-94
2023/12/17 07:33:24;;;;;;;;;;;-0.10;99.90;;;;;;5036084;28;19919;-95
2023/12/17 07:35:50;;;;;;;;;;;0.00;99.90;;;;;;5035913;28;19960;-88
2023/12/17 07:38:16;;;;;;;;;;;0.00;99.90;;;;;;5031998;28;19955;-92
2023/12/17 07:40:42;;;;;;;;;;;0.20;99.90;;;;;;5035844;28;19908;-93
2023/12/17 07:43:07;;;;;;;;;;;0.20;99.90;;;;;;5031756;28;20007;-91
2023/12/17 07:45:34;;;;;;;;;;;0.10;99.90;;;;;;5035120;28;20327;-91
2023/12/17 07:47:59;;;;;;;;;;;0.10;99.90;;;;;;5034176;28;19948;-93
2023/12/17 07:50:25;;;;;;;;;;;0.00;99.90;;;;;;5034580;28;19905;-93
2023/12/17 07:52:50;;;;;;;;;;;-0.10;99.90;;;;;;5036291;28;19909;-94
2023/12/17 07:55:16;;;;;;;;;;;0.10;99.90;;;;;;5035847;28;19909;-89
2023/12/17 07:57:42;;;;;;;;;;;0.50;99.90;;;;;;5034113;28;20680;-90
2023/12/17 08:00:08;;;;;;;;;;;0.30;99.90;;;;;;5048957;28;19908;-91
2023/12/17 08:02:34;;;;;;;;;;;0.50;99.90;;;;;;5031247;28;20533;-89
2023/12/17 08:04:59;;;;;;;;;;;1.20;99.90;;;;;;5029366;28;19913;-87
2023/12/17 08:07:25;;;;;;;;;;;1.60;99.90;;;;;;5029921;28;19912;-89
2023/12/17 08:09:50;;;;;;;;;;;1.80;99.90;;;;;;5029529;28;19956;-87
2023/12/17 08:12:16;;;;;;;;;;;1.90;99.90;;;;;;5046901;28;19909;-86
2023/12/17 08:14:41;;;;;;;;;;;1.90;99.90;;;;;;5032492;28;19917;-91
2023/12/17 08:17:07;;;;;;;;;;;2.00;99.90;;;;;;5038343;28;19921;-86
2023/12/17 08:19:33;;;;;;;;;;;2.10;99.90;;;;;;5032433;28;19912;-86
2023/12/17 08:21:58;;;;;;;;;;;2.10;99.90;;;;;;5034404;28;19959;-88
2023/12/17 08:24:24;;;;;;;;;;;2.10;99.90;;;;;;5033054;28;19947;-88
2023/12/17 08:26:50;;;;;;;;;;;2.20;99.90;;;;;;5043491;28;19966;-89
2023/12/17 08:29:17;;;;;;;;;;;2.30;99.90;;;;;;5037056;28;19908;-87
2023/12/17 08:31:44;;;;;;;;;;;2.40;99.90;;;;;;5052863;28;19921;-86
2023/12/17 08:34:09;;;;;;;;;;;2.40;99.90;;;;;;5040862;28;19962;-90
2023/12/17 08:36:35;;;;;;;;;;;2.40;99.90;;;;;;5067367;28;19908;-92
2023/12/17 08:39:00;;;;;;;;;;;2.50;99.90;;;;;;5037808;28;19913;-94
2023/12/17 08:41:26;;;;;;;;;;;2.70;99.90;;;;;;5045126;28;19962;-89
2023/12/17 08:43:51;;;;;;;;;;;2.70;99.90;;;;;;5037057;28;19909;-90
2023/12/17 08:46:17;;;;;;;;;;;2.70;99.90;;;;;;5042964;28;19919;-95
2023/12/17 08:48:43;;;;;;;;;;;2.90;99.90;;;;;;5033439;28;19913;-82
2023/12/17 08:51:08;;;;;;;;;;;3.10;99.90;;;;;;5046958;28;19913;-85
2023/12/17 08:53:34;;;;;;;;;;;3.10;99.90;;;;;;5030439;28;19909;-84
2023/12/17 08:55:59;;;;;;;;;;;3.20;99.90;;;;;;5045231;28;19955;-83
2023/12/17 08:58:25;;;;;;;;;;;3.10;99.90;;;;;;5050410;28;19940;-81
2023/12/17 09:00:50;;;;;;;;;;;3.30;99.90;;;;;;5043692;28;19909;-81
2023/12/17 09:03:17;;;;;;;;;;;3.30;99.90;;;;;;5045554;28;19987;-82
2023/12/17 09:05:43;;;;;;;;;;;3.60;99.90;;;;;;5041850;28;19913;-82
2023/12/17 09:08:08;;;;;;;;;;;3.70;99.50;;;;;;5043062;28;19916;-81
2023/12/17 09:10:34;;;;;;;;;;;3.70;99.50;;;;;;5048350;28;19935;-82
2023/12/17 09:12:59;;;;;;;;;;;3.90;99.90;;;;;;5036863;28;19908;-84
2023/12/17 09:15:25;;;;;;;;;;;3.80;99.40;;;;;;5030491;28;19920;-83
2023/12/17 09:17:51;;;;;;;;;;;3.70;99.90;;;;;;5046403;28;19951;-84
2023/12/17 09:20:16;;;;;;;;;;;3.70;99.90;;;;;;5048642;28;20681;-82
2023/12/17 09:22:42;;;;;;;;;;;3.70;99.90;;;;;;5048847;28;19935;-81
2023/12/17 09:25:08;;;;;;;;;;;3.70;99.90;;;;;;5048727;28;19931;-82
2023/12/17 09:27:33;;;;;;;;;;;3.80;99.90;;;;;;5030408;28;19909;-82
2023/12/17 09:29:59;;;;;;;;;;;3.90;99.60;;;;;;5046261;28;19913;-85
2023/12/17 09:32:26;;;;;;;;;;;3.80;99.90;;;;;;5048901;28;19908;-85
2023/12/17 09:34:51;;;;;;;;;;;4.00;99.30;;;;;;5031123;28;20453;-85
2023/12/17 09:37:17;;;;;;;;;;;4.10;99.10;;;;;;5047065;28;19916;-81
2023/12/17 09:39:42;;;;;;;;;;;4.20;98.80;;;;;;5048273;28;19908;-81
2023/12/17 09:42:08;;;;;;;;;;;4.20;99.00;;;;;;5064556;28;19908;-81
2023/12/17 09:44:34;;;;;;;;;;;4.10;98.30;;;;;;5048624;28;19955;-80
2023/12/17 09:46:59;;;;;;;;;;;4.30;99.20;;;;;;5031184;28;19951;-81
2023/12/17 09:49:25;;;;;;;;;;;4.20;99.10;;;;;;5048417;28;19960;-82
2023/12/17 09:51:54;;;;;;;;;;;4.10;99.40;;;;;;5045636;28;19924;-85
2023/12/17 09:54:19;;;;;;;;;;;4.10;98.80;;;;;;5037577;28;19952;-85
2023/12/17 09:56:48;;;;;;;;;;;4.10;98.80;;;;;;5031904;28;20427;-85
2023/12/17 09:59:13;;;;;;;;;;;4.40;98.00;;;;;;5030772;28;19909;-85
2023/12/17 10:01:39;;;;;;;;;;;4.40;97.50;;;;;;5044599;28;20846;-84
2023/12/17 10:04:04;;;;;;;;;;;4.40;97.50;;;;;;5030265;28;19920;-84
2023/12/17 10:06:31;;;;;;;;;;;4.30;98.10;;;;;;5027753;28;19921;-85
2023/12/17 10:08:58;;;;;;;;;;;4.50;98.40;;;;;;5041968;28;20098;-84
2023/12/17 10:11:24;;;;;;;;;;;4.70;98.30;;;;;;5029317;28;19955;-81
2023/12/17 10:13:50;;;;;;;;;;;4.80;98.00;;;;;;5032318;28;19955;-81
2023/12/17 10:16:16;;;;;;;;;;;4.90;97.70;;;;;;5044041;28;19908;-84
2023/12/17 10:18:46;;;;;;;;;;;4.80;97.10;;;;;;5024216;28;19923;-83
2023/12/17 10:21:11;;;;;;;;;;;4.90;97.30;;;;;;5036962;28;19909;-85
2023/12/17 10:23:46;;;;;;;;;;;4.90;97.20;;;;;;5045502;28;20012;-84
2023/12/17 10:26:12;;;;;;;;;;;5.00;96.20;;;;;;5045851;28;19923;-81
2023/12/17 10:28:40;;;;;;;;;;;5.10;96.00;;;;;;5042831;28;20307;-84
2023/12/17 10:31:06;;;;;;;;;;;5.10;96.40;;;;;;5027925;28;20581;-84
2023/12/17 10:33:36;;;;;;;;;;;5.10;96.00;;;;;;5044035;28;19912;-87
2023/12/17 10:36:01;;;;;;;;;;;5.30;95.20;;;;;;5027277;28;20482;-85
2023/12/17 10:38:27;;;;;;;;;;;5.40;95.10;;;;;;5042789;28;19913;-85
2023/12/17 10:40:53;;;;;;;;;;;5.50;95.50;;;;;;5034437;28;19919;-84
2023/12/17 10:43:21;;;;;;;;;;;5.80;94.60;;;;;;5046438;28;19923;-83
2023/12/17 10:45:47;;;;;;;;;;;5.80;94.60;;;;;;5047281;28;19916;-85
2023/12/17 10:48:15;;;;;;;;;;;5.70;94.60;;;;;;5048712;28;19936;-86
2023/12/17 10:50:41;;;;;;;;;;;5.70;93.90;;;;;;5030851;28;20345;-86
2023/12/17 10:53:07;;;;;;;;;;;5.80;94.30;;;;;;5042356;28;19924;-86
2023/12/17 10:55:33;;;;;;;;;;;5.80;93.80;;;;;;5035896;28;19912;-85
2023/12/17 10:58:01;;;;;;;;;;;5.80;94.30;;;;;;5033628;28;20496;-86
2023/12/17 11:00:29;;;;;;;;;;;5.80;95.30;;;;;;5062887;28;19908;-86
2023/12/17 11:02:57;;;;;;;;;;;5.80;94.40;;;;;;5036903;28;19979;-85
2023/12/17 11:05:23;;;;;;;;;;;5.70;94.40;;;;;;5029040;28;19908;-86
2023/12/17 11:07:48;;;;;;;;;;;5.60;94.60;;;;;;5047776;28;19909;-86
2023/12/17 11:10:17;;;;;;;;;;;5.60;94.40;;;;;;5048411;28;19931;-86
2023/12/17 11:12:44;;;;;;;;;;;5.70;95.00;;;;;;5048827;28;19909;-86
2023/12/17 11:15:11;;;;;;;;;;;5.80;94.30;;;;;;5046270;28;19908;-86
2023/12/17 11:17:38;;;;;;;;;;;5.90;94.80;;;;;;5048761;28;20004;-86
2023/12/17 11:20:04;;;;;;;;;;;6.00;94.90;;;;;;5032316;28;19916;-86
2023/12/17 11:22:33;;;;;;;;;;;5.90;95.10;;;;;;5048419;28;19914;-86
2023/12/17 11:24:59;;;;;;;;;;;6.00;95.60;;;;;;5048006;28;19909;-86
2023/12/17 11:27:26;;;;;;;;;;;6.20;94.70;;;;;;5029154;28;20517;-86
2023/12/17 11:29:52;;;;;;;;;;;6.20;94.70;;;;;;5031435;28;20444;-87
2023/12/17 11:32:19;;;;;;;;;;;6.30;94.80;;;;;;5029587;28;19928;-86
2023/12/17 11:34:48;;;;;;;;;;;6.50;95.30;;;;;;5046514;28;19912;-87
2023/12/17 11:37:21;;;;;;;;;;;6.50;95.00;;;;;;5062115;28;20430;-87
2023/12/17 11:39:47;;;;;;;;;;;6.50;94.60;;;;;;5035662;28;19999;-87
2023/12/17 11:42:14;;;;;;;;;;;6.50;94.80;;;;;;5047014;28;19919;-86
2023/12/17 11:44:49;;;;;;;;;;;6.50;94.90;;;;;;5028516;28;20402;-87
2023/12/17 11:47:15;;;;;;;;;;;6.50;94.70;;;;;;5027360;28;19916;-87
2023/12/17 11:49:42;;;;;;;;;;;6.60;94.40;;;;;;5044370;28;20758;-86
2023/12/17 11:52:11;;;;;;;;;;;6.60;94.60;;;;;;5027968;28;19908;-85
2023/12/17 11:54:36;;;;;;;;;;;6.60;94.50;;;;;;5046375;28;20368;-85
2023/12/17 11:57:02;;;;;;;;;;;6.70;95.30;;;;;;5045123;28;20011;-91
2023/12/17 11:59:34;;;;;;;;;;;6.70;95.20;;;;;;5043696;28;20003;-85
2023/12/17 12:02:00;;;;;;;;;;;6.80;95.20;;;;;;5046581;28;20749;-85
2023/12/17 12:04:27;;;;;;;;;;;6.80;94.80;;;;;;5045621;28;19912;-85
2023/12/17 12:06:53;;;;;;;;;;;6.80;94.60;;;;;;5032949;28;20003;-88
2023/12/17 12:09:21;;;;;;;;;;;6.90;94.60;;;;;;5031317;28;19912;-85
2023/12/17 12:11:48;;;;;;;;;;;7.00;95.00;;;;;;5045351;28;20666;-83
2023/12/17 12:14:13;;;;;;;;;;;7.00;94.00;;;;;;5059816;28;19970;-87
2023/12/17 12:16:39;;;;;;;;;;;6.90;94.00;;;;;;5043381;28;19917;-88
2023/12/17 12:19:05;;;;;;;;;;;6.90;93.70;;;;;;5061819;28;19912;-86
2023/12/17 12:21:30;;;;;;;;;;;7.00;94.00;;;;;;5043876;28;19923;-87
2023/12/17 12:23:56;;;;;;;;;;;6.90;93.90;;;;;;5048520;28;19912;-87
2023/12/17 12:26:23;;;;;;;;;;;6.90;93.90;;;;;;5029783;28;19916;-89
2023/12/17 12:28:58;;;;;;;;;;;6.90;93.80;;;;;;5051578;28;20351;-86
2023/12/17 12:31:28;;;;;;;;;;;6.80;94.20;;;;;;5025837;28;19920;-86
2023/12/17 12:33:59;;;;;;;;;;;6.90;93.30;;;;;;5047252;28;19913;-84
2023/12/17 12:36:25;;;;;;;;;;;7.00;93.80;;;;;;5035075;28;19913;-83
2023/12/17 12:39:01;;;;;;;;;;;7.20;93.10;;;;;;5043363;28;19912;-82
2023/12/17 12:41:27;;;;;;;;;;;7.30;93.90;;;;;;5062431;28;20063;-89
2023/12/17 12:43:53;;;;;;;;;;;7.40;94.10;;;;;;5046793;28;19920;-86
2023/12/17 12:46:18;;;;;;;;;;;7.40;92.70;;;;;;5034131;28;19917;-85
2023/12/17 12:48:44;;;;;;;;;;;7.40;91.70;;;;;;5047787;28;19935;-90
2023/12/17 12:51:10;;;;;;;;;;;7.50;92.50;;;;;;5042161;28;19927;-83
2023/12/17 12:53:36;;;;;;;;;;;7.60;92.80;;;;;;5047074;28;20002;-83
2023/12/17 12:56:01;;;;;;;;;;;7.50;91.90;;;;;;5028815;28;19948;-88
2023/12/17 12:58:27;;;;;;;;;;;7.50;92.90;;;;;;5046435;28;19916;-89
2023/12/17 13:00:53;;;;;;;;;;;7.50;92.60;;;;;;5028568;28;20319;-87
2023/12/17 13:03:18;;;;;;;;;;;7.40;91.80;;;;;;5066147;28;19909;-90
2023/12/17 13:05:44;;;;;;;;;;;7.20;92.30;;;;;;5034156;28;19928;-85
2023/12/17 13:08:09;;;;;;;;;;;7.20;92.40;;;;;;5060730;28;19923;-85
2023/12/17 13:10:35;;;;;;;;;;;7.10;92.40;;;;;;5033367;28;20019;-88
2023/12/17 13:13:01;;;;;;;;;;;7.00;92.60;;;;;;5028191;28;19967;-84
2023/12/17 13:15:26;;;;;;;;;;;7.20;92.20;;;;;;5030829;28;20027;-84
2023/12/17 13:17:52;;;;;;;;;;;7.20;92.70;;;;;;5047665;28;20363;-86
2023/12/17 13:20:18;;;;;;;;;;;7.40;93.40;;;;;;5058574;28;19912;-84
2023/12/17 13:22:43;;;;;;;;;;;7.40;92.70;;;;;;5043976;28;20415;-84
2023/12/17 13:25:09;;;;;;;;;;;7.60;92.10;;;;;;5030351;28;19909;-84
2023/12/17 13:27:35;;;;;;;;;;;7.40;91.80;;;;;;5047980;28;19938;-84
2023/12/17 13:30:01;;;;;;;;;;;7.30;91.80;;;;;;5030889;28;19924;-85
2023/12/17 13:32:27;;;;;;;;;;;7.50;91.30;;;;;;5049154;28;19923;-85
2023/12/17 13:34:52;;;;;;;;;;;7.60;90.20;;;;;;5031358;28;19913;-84
2023/12/17 13:37:18;;;;;;;;;;;7.60;88.90;;;;;;5049514;28;19909;-83
2023/12/17 13:39:43;;;;;;;;;;;7.60;89.80;;;;;;5036296;28;19905;-84
2023/12/17 13:42:09;;;;;;;;;;;7.40;90.40;;;;;;5065104;28;19912;-85
2023/12/17 13:44:35;;;;;;;;;;;7.20;91.10;;;;;;5049794;28;20015;-84
2023/12/17 13:47:00;;;;;;;;;;;7.40;89.90;;;;;;5031441;28;20027;-83
2023/12/17 13:49:26;;;;;;;;;;;7.60;85.80;;;;;;5049412;28;20023;-84
2023/12/17 13:51:51;;;;;;;;;;;7.50;88.00;;;;;;5050279;28;20007;-83
2023/12/17 13:54:17;;;;;;;;;;;7.50;89.20;;;;;;5049929;28;20049;-84
2023/12/17 13:56:43;;;;;;;;;;;7.70;89.30;;;;;;5032660;28;19997;-84
2023/12/17 13:59:09;;;;;;;;;;;7.50;88.40;;;;;;5049778;28;19904;-83
2023/12/17 14:01:34;;;;;;;;;;;7.60;87.40;;;;;;5050252;28;19913;-84
2023/12/17 14:04:00;;;;;;;;;;;7.40;89.70;;;;;;5049114;28;20063;-83
2023/12/17 14:06:26;;;;;;;;;;;7.40;90.10;;;;;;5048876;28;19912;-85
2023/12/17 14:08:52;;;;;;;;;;;7.20;90.70;;;;;;5030914;28;19912;-83
2023/12/17 14:11:18;;;;;;;;;;;7.30;90.00;;;;;;5048824;28;19947;-85
2023/12/17 14:13:43;;;;;;;;;;;7.30;90.00;;;;;;5048039;28;20732;-82
2023/12/17 14:16:20;;;;;;;;;;;7.10;90.20;;;;;;5027423;28;19928;-87
2023/12/17 14:18:46;;;;;;;;;;;7.20;90.30;;;;;;5032793;28;19913;-86
2023/12/17 14:21:11;;;;;;;;;;;7.40;89.80;;;;;;5045046;28;19920;-87